Time;durP1;ratioP1;P1;durP2;ratioP2;P2;SDS_P1;SDS_P2;PMS_P1;PMS_P2;Temp;Humidity;BMP_temperature;BMP_pressure;BME280_temperature;BME280_humidity;BME280_pressure;Samples;Min_cycle;Max_cycle;Signal;HPM_P1;HPM_P2
2021/12/18 09:39:21;;;;;;;54.95;10.18;;;;;;;5.58;100.00;104039.88;5069574;28;20391;-43
2021/12/18 09:41:48;;;;;;;44.25;9.32;;;;;;;5.63;100.00;104042.31;5068820;28;20032;-43
2021/12/18 09:44:14;;;;;;;40.05;8.10;;;;;;;5.64;100.00;104042.25;5068968;28;20056;-43
2021/12/18 09:46:40;;;;;;;34.65;8.38;;;;;;;5.70;100.00;104039.28;5069161;28;20064;-43
2021/12/18 09:49:06;;;;;;;27.33;7.80;;;;;;;5.78;100.00;104033.56;5069035;28;20056;-42
2021/12/18 09:51:32;;;;;;;30.10;7.47;;;;;;;5.82;100.00;104040.53;5068669;28;20029;-41
2021/12/18 09:53:58;;;;;;;25.67;6.97;;;;;;;5.93;100.00;104026.66;5069040;28;20028;-43
2021/12/18 09:56:24;;;;;;;43.17;6.95;;;;;;;5.94;97.86;104023.06;5056883;28;20075;-42
2021/12/18 09:58:50;;;;;;;24.67;6.18;;;;;;;5.96;97.13;104025.66;5048386;28;20496;-42
2021/12/18 10:01:16;;;;;;;52.45;6.95;;;;;;;5.98;97.25;104021.09;5048572;28;20061;-41
2021/12/18 10:03:52;;;;;;;20.90;5.68;;;;;;;5.99;97.54;104014.81;5048572;28;20026;-42
2021/12/18 10:06:42;;;;;;;36.30;6.63;;;;;;;6.06;98.12;104018.94;5047451;28;20040;-42
2021/12/18 10:09:16;;;;;;;83.47;7.32;;;;;;;6.10;98.29;104013.34;5048827;28;20035;-42
2021/12/18 10:11:51;;;;;;;18.65;6.13;;;;;;;6.21;98.28;104015.50;5048274;28;20043;-42
2021/12/18 10:14:18;;;;;;;26.73;6.45;;;;;;;6.22;98.30;104011.03;5048460;28;20036;-42
2021/12/18 10:16:47;;;;;;;20.02;6.40;;;;;;;6.27;98.01;104012.53;5048782;28;20025;-43
2021/12/18 10:19:35;;;;;;;21.48;6.72;;;;;;;6.39;97.81;104013.72;5047341;28;20036;-42
2021/12/18 10:22:03;;;;;;;35.60;6.60;;;;;;;6.46;96.50;104014.28;5047057;28;20021;-43
2021/12/18 10:24:30;;;;;;;45.55;7.70;;;;;;;6.35;95.42;104014.84;5041492;28;20079;-42
2021/12/18 10:26:56;;;;;;;18.83;6.93;;;;;;;6.38;95.73;104012.88;5047980;28;20469;-43
2021/12/18 10:29:32;;;;;;;19.90;6.50;;;;;;;6.52;95.99;104016.66;5048109;28;20036;-42
2021/12/18 10:32:08;;;;;;;20.73;7.28;;;;;;;6.53;95.80;104019.25;5039003;28;20040;-43
2021/12/18 10:34:33;;;;;;;20.38;6.63;;;;;;;6.55;94.96;104017.34;5048038;28;20087;-43
2021/12/18 10:37:08;;;;;;;29.33;7.47;;;;;;;6.57;94.84;104017.28;5047826;28;20037;-42
2021/12/18 10:39:38;;;;;;;20.85;7.90;;;;;;;6.58;95.38;104019.91;5046791;28;20106;-42
2021/12/18 10:42:33;;;;;;;29.45;7.25;;;;;;;6.61;94.55;104024.22;5047795;28;20488;-42
2021/12/18 10:45:01;;;;;;;21.58;7.25;;;;;;;6.58;94.87;104024.34;5054735;28;20012;-42
2021/12/18 10:47:31;;;;;;;21.50;8.10;;;;;;;6.62;95.07;104020.59;5049535;28;20159;-42
2021/12/18 10:49:56;;;;;;;89.03;9.77;;;;;;;6.55;94.52;104016.50;5037697;28;20120;-42
2021/12/18 10:52:37;;;;;;;91.95;8.27;;;;;;;6.40;94.18;104011.91;5034064;28;20061;-43
2021/12/18 10:55:04;;;;;;;18.35;8.10;;;;;;;6.48;94.33;104013.28;5034235;28;20469;-42
2021/12/18 10:57:29;;;;;;;22.38;8.70;;;;;;;6.42;94.13;104012.69;5032739;28;20037;-43
2021/12/18 10:59:57;;;;;;;24.58;8.10;;;;;;;6.42;94.87;104012.69;5035088;28;20334;-43
2021/12/18 11:02:22;;;;;;;88.43;8.65;;;;;;;6.26;95.15;104013.47;5034972;28;20065;-43
2021/12/18 11:04:49;;;;;;;28.52;8.82;;;;;;;6.35;95.57;104020.19;5034664;28;20032;-43
2021/12/18 11:07:19;;;;;;;40.22;9.20;;;;;;;6.34;95.78;104015.75;5034884;28;20030;-43
2021/12/18 11:09:59;;;;;;;21.15;8.25;;;;;;;6.38;95.47;104006.66;5034495;28;20116;-43
2021/12/18 11:15:08;;;;;;;48.95;8.63;;;;;;;6.37;94.84;104005.78;5034880;28;20079;-44
2021/12/18 11:17:34;;;;;;;22.88;8.15;;;;;;;6.33;94.49;104004.19;5041583;28;20056;-42
2021/12/18 11:19:59;;;;;;;27.17;8.38;;;;;;;6.22;94.21;104011.03;5038366;28;20075;-43
2021/12/18 11:22:25;;;;;;;27.60;10.18;;;;;;;6.25;95.49;104006.41;5034368;28;20025;-42
2021/12/18 11:25:01;;;;;;;28.23;7.95;;;;;;;6.31;95.79;104006.06;5054106;28;20031;-42
2021/12/18 11:27:28;;;;;;;39.03;8.98;;;;;;;6.29;95.84;104007.97;5053997;28;20480;-42
2021/12/18 11:30:08;;;;;;;22.60;7.72;;;;;;;6.34;95.97;103997.03;5052977;28;20021;-43
2021/12/18 11:32:39;;;;;;;26.45;8.90;;;;;;;6.35;96.13;103999.66;5054154;28;20036;-42
2021/12/18 11:35:17;;;;;;;32.85;10.95;;;;;;;6.40;95.95;103990.50;5049068;28;20132;-43
2021/12/18 11:37:48;;;;;;;22.52;7.72;;;;;;;6.48;95.50;103991.00;5034083;28;20136;-42
2021/12/18 11:40:16;;;;;;;28.35;7.65;;;;;;;6.36;94.79;103989.81;5033963;28;20025;-42
2021/12/18 11:42:42;;;;;;;25.58;8.75;;;;;;;6.33;94.87;103987.28;5033022;28;20112;-42
2021/12/18 11:45:09;;;;;;;18.55;7.50;;;;;;;6.45;95.52;103993.81;5033273;28;20025;-42
2021/12/18 11:47:35;;;;;;;16.80;7.00;;;;;;;6.51;95.05;103991.72;5034301;28;20033;-42
2021/12/18 11:50:27;;;;;;;22.17;7.88;;;;;;;6.44;94.80;103981.41;5034364;28;20030;-42
2021/12/18 11:53:03;;;;;;;32.20;7.05;;;;;;;6.46;93.63;103980.38;5036014;28;20120;-42
2021/12/18 11:55:48;;;;;;;18.20;6.75;;;;;;;6.47;93.74;103978.56;5034606;28;20033;-43
2021/12/18 11:58:24;;;;;;;16.77;7.15;;;;;;;6.56;94.41;103973.63;5033852;28;20051;-42
2021/12/18 12:00:55;;;;;;;19.75;7.03;;;;;;;6.58;94.24;103973.50;5032677;28;20449;-42
2021/12/18 12:03:43;;;;;;;20.08;7.68;;;;;;;6.58;94.84;103969.06;5033818;28;20034;-43
2021/12/18 12:06:33;;;;;;;19.33;7.47;;;;;;;6.66;94.64;103976.69;5030459;28;20025;-46
2021/12/18 12:09:17;;;;;;;27.00;8.93;;;;;;;6.66;94.90;103971.34;5033162;28;20025;-44
2021/12/18 12:11:56;;;;;;;21.70;8.98;;;;;;;6.59;94.34;103973.44;5033296;28;20495;-43
2021/12/18 12:14:25;;;;;;;22.08;8.68;;;;;;;6.63;94.74;103968.78;5034031;28;20124;-44
2021/12/18 12:16:50;;;;;;;31.67;8.52;;;;;;;6.70;94.89;103962.19;5032023;28;20033;-45
2021/12/18 12:19:24;;;;;;;26.65;8.90;;;;;;;6.80;94.64;103959.91;5033228;28;20394;-43
2021/12/18 12:21:55;;;;;;;50.55;10.48;;;;;;;6.71;93.34;103945.16;5033185;28;20385;-44
2021/12/18 12:24:26;;;;;;;39.88;10.90;;;;;;;6.68;93.73;103945.34;5033136;28;20029;-44
2021/12/18 12:26:53;;;;;;;22.10;9.60;;;;;;;6.75;93.90;103952.09;5032923;28;20068;-44
2021/12/18 12:29:19;;;;;;;28.00;9.98;;;;;;;6.73;93.46;103937.94;5031686;28;20030;-42
2021/12/18 12:32:12;;;;;;;24.67;9.63;;;;;;;6.72;93.39;103936.22;5019240;28;20022;-44
2021/12/18 12:34:37;;;;;;;21.10;7.43;;;;;;;6.65;92.72;103934.78;5028612;28;20068;-43
2021/12/18 12:37:31;;;;;;;15.85;6.65;;;;;;;6.56;93.05;103930.78;5032727;28;20048;-44
2021/12/18 12:40:19;;;;;;;19.15;7.75;;;;;;;6.64;92.51;103932.22;5041667;28;20123;-43
2021/12/18 12:43:15;;;;;;;21.83;7.82;;;;;;;6.50;93.21;103919.53;5030920;28;20469;-44
2021/12/18 12:45:42;;;;;;;17.17;7.85;;;;;;;6.51;93.74;103926.63;5031914;28;20049;-45
2021/12/18 12:48:08;;;;;;;18.75;7.45;;;;;;;6.55;93.82;103923.69;5032696;28;20049;-42
2021/12/18 12:50:34;;;;;;;19.23;7.50;;;;;;;6.53;93.39;103919.38;5032796;28;20115;-43
2021/12/18 12:53:02;;;;;;;18.80;8.02;;;;;;;6.58;93.81;103922.66;5032009;28;20124;-43
2021/12/18 12:55:43;;;;;;;20.95;8.98;;;;;;;6.56;93.28;103920.09;5032585;28;20108;-43
2021/12/18 12:58:24;;;;;;;19.05;7.95;;;;;;;6.40;93.21;103915.59;5030968;28;20473;-43
2021/12/18 13:00:52;;;;;;;22.10;8.65;;;;;;;6.35;93.79;103916.72;5029321;28;20216;-42
2021/12/18 13:03:21;;;;;;;24.95;8.43;;;;;;;6.42;94.22;103906.53;5027759;28;20075;-43
2021/12/18 13:05:50;;;;;;;18.73;8.15;;;;;;;6.49;93.61;103916.00;5028606;28;20037;-43
2021/12/18 13:08:16;;;;;;;19.70;8.57;;;;;;;6.53;93.80;103911.34;5027962;28;20035;-43
2021/12/18 13:10:42;;;;;;;21.70;8.88;;;;;;;6.49;94.18;103912.47;5029873;28;20025;-44
2021/12/18 13:13:09;;;;;;;23.83;9.07;;;;;;;6.54;94.65;103913.09;5032060;28;20397;-42
2021/12/18 13:15:46;;;;;;;20.80;8.23;;;;;;;6.59;94.24;103903.00;5032003;28;20531;-43
2021/12/18 13:18:12;;;;;;;16.23;7.63;;;;;;;6.52;93.76;103906.94;5032457;28;20022;-43
2021/12/18 13:20:51;;;;;;;15.88;7.30;;;;;;;6.52;93.49;103905.13;5031801;28;20048;-42
2021/12/18 13:23:19;;;;;;;14.82;6.13;;;;;;;6.57;93.25;103911.09;5030533;28;20124;-42
2021/12/18 13:25:51;;;;;;;16.13;5.85;;;;;;;6.54;92.75;103902.38;5031828;28;20032;-42
2021/12/18 13:28:17;;;;;;;11.68;6.10;;;;;;;6.34;93.03;103901.59;5012779;28;20026;-43
2021/12/18 13:30:42;;;;;;;17.80;7.05;;;;;;;6.32;93.52;103906.19;5013503;28;20030;-44
2021/12/18 13:33:08;;;;;;;22.02;7.07;;;;;;;6.26;94.26;103901.13;5032062;28;20021;-44
2021/12/18 13:35:37;;;;;;;17.90;7.60;;;;;;;6.23;94.48;103898.59;5031620;28;20030;-45
2021/12/18 13:38:09;;;;;;;16.65;7.22;;;;;;;6.32;94.70;103899.97;5027522;28;20045;-43
2021/12/18 13:40:53;;;;;;;10.75;5.22;;;;;;;6.32;95.10;103895.47;5030096;28;20025;-43
2021/12/18 13:43:24;;;;;;;14.88;5.85;;;;;;;6.35;94.85;103889.97;5029541;28;20551;-43
2021/12/18 13:45:57;;;;;;;9.82;4.43;;;;;;;6.38;93.26;103891.63;5030845;28;20060;-43
2021/12/18 13:48:29;;;;;;;7.50;3.97;;;;;;;6.30;92.28;103884.00;5032505;28;20037;-44
2021/12/18 13:51:18;;;;;;;12.82;5.13;;;;;;;6.22;92.85;103891.53;5032530;28;20033;-43
2021/12/18 13:53:57;;;;;;;11.30;5.65;;;;;;;6.18;93.02;103887.28;5031277;28;20535;-44
2021/12/18 13:56:25;;;;;;;15.38;5.60;;;;;;;6.18;93.81;103892.63;5031697;28;20033;-44
2021/12/18 13:58:50;;;;;;;11.65;5.90;;;;;;;6.18;94.07;103881.94;5032142;28;20100;-43
2021/12/18 14:01:20;;;;;;;12.13;5.60;;;;;;;6.19;94.63;103883.69;5032074;28;20507;-44
2021/12/18 14:03:57;;;;;;;9.85;5.30;;;;;;;6.27;94.67;103878.81;5032133;28;20037;-45
2021/12/18 14:06:34;;;;;;;13.20;6.07;;;;;;;6.29;94.62;103879.59;5030678;28;20029;-45
2021/12/18 14:09:07;;;;;;;12.77;6.68;;;;;;;6.26;94.66;103878.88;5031962;28;20470;-44
2021/12/18 14:11:43;;;;;;;13.52;7.13;;;;;;;6.33;95.00;103875.78;5031785;28;20030;-44
2021/12/18 14:14:11;;;;;;;13.85;6.93;;;;;;;6.35;94.99;103873.06;5032064;28;20036;-44
2021/12/18 14:16:37;;;;;;;12.80;6.57;;;;;;;6.29;94.54;103876.91;5031590;28;20125;-44
2021/12/18 14:19:09;;;;;;;17.92;7.90;;;;;;;6.26;94.64;103882.41;5030149;28;20028;-44
2021/12/18 14:21:43;;;;;;;17.15;6.95;;;;;;;6.29;93.81;103868.91;5031924;28;20060;-43
2021/12/18 14:24:11;;;;;;;17.48;7.47;;;;;;;6.32;94.13;103871.41;5032275;28;20021;-43
2021/12/18 14:26:37;;;;;;;18.48;8.65;;;;;;;6.29;94.36;103876.91;5034313;28;20032;-45
2021/12/18 14:29:14;;;;;;;18.23;8.07;;;;;;;6.30;94.86;103873.28;5034225;28;20049;-43
2021/12/18 14:31:44;;;;;;;19.50;8.43;;;;;;;6.38;93.96;103876.41;5035453;28;20025;-43
2021/12/18 14:34:13;;;;;;;15.75;7.65;;;;;;;6.32;93.86;103879.44;5035786;28;20033;-42
2021/12/18 14:36:48;;;;;;;20.58;6.68;;;;;;;6.30;93.96;103869.75;5035328;28;20028;-43
2021/12/18 14:39:21;;;;;;;15.38;7.18;;;;;;;6.28;94.14;103871.63;5035078;28;20042;-43
2021/12/18 14:41:56;;;;;;;19.10;7.88;;;;;;;6.30;93.81;103865.25;5035370;28;20022;-43
2021/12/18 14:44:22;;;;;;;15.90;7.30;;;;;;;6.25;93.17;103867.31;5035121;28;20033;-43
2021/12/18 14:46:48;;;;;;;16.98;8.15;;;;;;;6.20;93.57;103864.00;5035377;28;20083;-44
2021/12/18 14:49:14;;;;;;;22.83;9.18;;;;;;;6.27;93.90;103860.06;5033774;28;20045;-43
2021/12/18 14:51:42;;;;;;;27.33;8.93;;;;;;;6.19;93.83;103867.63;5035110;28;20099;-45
2021/12/18 14:54:08;;;;;;;24.08;9.05;;;;;;;6.12;94.27;103866.22;5035015;28;20026;-44
2021/12/18 14:56:33;;;;;;;22.00;9.85;;;;;;;6.03;94.35;103866.66;5034938;28;20029;-43
2021/12/18 14:58:59;;;;;;;20.52;8.82;;;;;;;6.01;94.50;103880.13;5034077;28;20044;-44
2021/12/18 15:01:24;;;;;;;23.67;9.27;;;;;;;6.02;95.10;103871.16;5033726;28;20079;-44
2021/12/18 15:03:52;;;;;;;27.55;11.48;;;;;;;6.01;95.27;103879.28;5033605;28;20436;-44
2021/12/18 15:06:21;;;;;;;;;;;;;;;6.04;95.40;103879.97;5035382;28;20133;-44
2021/12/18 15:08:59;;;;;;;27.15;10.90;;;;;;;6.06;95.65;103886.09;5034765;28;19989;-42
2021/12/18 15:11:34;;;;;;;23.90;10.27;;;;;;;6.18;95.16;103889.09;5034919;28;20029;-43
2021/12/18 15:13:59;;;;;;;29.27;10.90;;;;;;;6.15;95.06;103887.44;5034704;28;20025;-43
2021/12/18 15:16:38;;;;;;;27.20;11.52;;;;;;;6.18;95.70;103887.28;5034489;28;20037;-42
2021/12/18 15:19:07;;;;;;;32.70;13.50;;;;;;;6.19;95.91;103889.03;5034468;28;20041;-43
2021/12/18 15:21:34;;;;;;;35.42;12.32;;;;;;;6.18;95.77;103900.66;5034498;28;20029;-43
2021/12/18 15:24:01;;;;;;;36.90;12.00;;;;;;;6.14;95.96;103896.41;5034644;28;20025;-43
2021/12/18 15:26:27;;;;;;;33.83;13.65;;;;;;;6.05;95.87;103897.72;5034444;28;20052;-45
2021/12/18 15:28:52;;;;;;;33.63;13.35;;;;;;;6.08;96.06;103897.59;5034260;28;20030;-44
2021/12/18 15:31:18;;;;;;;37.30;14.18;;;;;;;6.15;96.17;103892.78;5034157;28;20057;-42
2021/12/18 15:33:43;;;;;;;34.15;14.05;;;;;;;6.23;95.94;103895.06;5034366;28;20049;-43
2021/12/18 15:36:09;;;;;;;47.55;13.93;;;;;;;6.08;95.43;103888.69;5034280;28;20049;-43
2021/12/18 15:38:34;;;;;;;53.45;14.25;;;;;;;6.03;95.73;103877.34;5034143;28;20532;-44
2021/12/18 15:40:59;;;;;;;45.05;15.27;;;;;;;5.99;95.94;103881.16;5034273;28;20022;-45
2021/12/18 15:43:25;;;;;;;51.15;15.35;;;;;;;6.10;95.89;103878.78;5033079;28;20022;-44
2021/12/18 15:45:51;;;;;;;40.70;15.63;;;;;;;6.18;95.80;103881.94;5034184;28;20520;-43
2021/12/18 15:48:16;;;;;;;46.05;15.27;;;;;;;6.21;95.60;103880.91;5033999;28;20025;-42
2021/12/18 15:50:42;;;;;;;43.65;16.90;;;;;;;6.26;95.50;103879.72;5034106;28;20021;-44
2021/12/18 15:53:08;;;;;;;45.70;15.98;;;;;;;6.15;95.59;103877.59;5032529;28;20477;-44
2021/12/18 15:55:33;;;;;;;37.67;14.55;;;;;;;6.15;95.57;103879.41;5033637;28;20082;-44
2021/12/18 15:57:59;;;;;;;66.40;17.90;;;;;;;6.06;95.57;103878.09;5015780;28;20705;-43
2021/12/18 16:00:27;;;;;;;47.97;18.23;;;;;;;6.04;95.81;103881.78;5033993;28;20029;-43
2021/12/18 16:02:52;;;;;;;49.40;18.25;;;;;;;6.15;96.42;103882.94;5033867;28;20022;-44
2021/12/18 16:05:23;;;;;;;52.03;17.35;;;;;;;6.21;95.92;103879.09;5033817;28;20362;-43
2021/12/18 16:07:50;;;;;;;50.00;18.65;;;;;;;6.17;95.58;103874.88;5033990;28;20085;-43
2021/12/18 16:10:15;;;;;;;49.97;17.85;;;;;;;6.16;95.94;103878.47;5033954;28;20033;-44
2021/12/18 16:12:40;;;;;;;47.92;18.02;;;;;;;6.22;96.19;103878.16;5033725;28;20393;-44
2021/12/18 16:15:06;;;;;;;56.70;19.42;;;;;;;6.15;95.63;103871.41;5032321;28;20048;-43
2021/12/18 16:17:31;;;;;;;55.33;19.83;;;;;;;6.16;95.78;103875.78;5033407;28;20401;-44
2021/12/18 16:19:56;;;;;;;59.83;19.92;;;;;;;6.13;95.99;103874.16;5033693;28;20053;-43
2021/12/18 16:22:22;;;;;;;57.58;22.08;;;;;;;6.13;96.42;103876.84;5033588;28;20489;-45
2021/12/18 16:24:47;;;;;;;61.78;22.27;;;;;;;6.19;96.28;103872.09;5033455;28;20029;-43
2021/12/18 16:27:15;;;;;;;59.72;21.73;;;;;;;6.12;95.85;103863.53;5033470;28;20025;-43
2021/12/18 16:29:40;;;;;;;;;;;;;;;6.07;96.14;103874.47;5034183;28;20109;-44
2021/12/18 16:32:06;;;;;;;69.28;22.75;;;;;;;6.12;96.47;103876.91;5033383;28;19978;-43
2021/12/18 16:34:31;;;;;;;70.20;25.45;;;;;;;6.20;96.67;103869.34;5033307;28;20079;-43
2021/12/18 16:36:59;;;;;;;65.43;23.50;;;;;;;6.23;96.38;103869.19;5033229;28;20377;-44
2021/12/18 16:39:24;;;;;;;69.32;24.15;;;;;;;6.24;96.39;103873.63;5033250;28;20029;-43
2021/12/18 16:41:50;;;;;;;67.10;22.98;;;;;;;6.27;96.29;103870.78;5033145;28;20025;-44
2021/12/18 16:44:15;;;;;;;73.97;25.98;;;;;;;6.31;96.39;103876.81;5031885;28;20039;-43
2021/12/18 16:46:40;;;;;;;70.70;23.90;;;;;;;6.33;96.31;103878.47;5032666;28;20456;-44
2021/12/18 16:49:06;;;;;;;77.88;26.63;;;;;;;6.33;96.20;103870.44;5031627;28;20472;-42
2021/12/18 16:51:31;;;;;;;80.20;26.58;;;;;;;6.34;96.35;103872.16;5032964;28;20107;-42
2021/12/18 16:53:57;;;;;;;73.75;22.83;;;;;;;6.35;96.26;103879.25;5033031;28;20385;-44
2021/12/18 16:56:23;;;;;;;72.28;22.90;;;;;;;6.40;95.91;103870.13;5032841;28;20021;-45
2021/12/18 16:58:50;;;;;;;68.75;22.08;;;;;;;6.39;96.00;103869.25;5032919;28;20032;-44
2021/12/18 17:01:15;;;;;;;76.77;25.47;;;;;;;6.43;95.58;103875.34;5031752;28;20548;-43
2021/12/18 17:03:45;;;;;;;71.82;23.27;;;;;;;6.45;95.50;103870.75;5032760;28;20104;-43
2021/12/18 17:06:11;;;;;;;94.95;35.35;;;;;;;6.41;95.59;103870.06;5032988;28;20025;-43
2021/12/18 17:08:37;;;;;;;74.10;25.33;;;;;;;6.42;95.62;103865.56;5031672;28;20017;-44
2021/12/18 17:11:03;;;;;;;73.15;22.85;;;;;;;6.45;95.47;103862.72;5032794;28;20107;-43
2021/12/18 17:13:28;;;;;;;71.97;24.42;;;;;;;6.40;95.49;103864.75;5032782;28;20120;-43
2021/12/18 17:15:54;;;;;;;81.35;26.80;;;;;;;6.36;95.64;103862.25;5032686;28;20147;-43
2021/12/18 17:18:19;;;;;;;82.28;28.83;;;;;;;6.33;95.87;103870.44;5031299;28;20030;-44
2021/12/18 17:20:44;;;;;;;69.30;21.35;;;;;;;6.40;95.63;103867.44;5032573;28;20025;-43
2021/12/18 17:23:10;;;;;;;68.85;21.58;;;;;;;6.38;95.55;103862.19;5032438;28;20021;-44
2021/12/18 17:25:35;;;;;;;72.25;23.40;;;;;;;6.40;95.98;103865.66;5032856;28;20105;-42
2021/12/18 17:28:02;;;;;;;79.97;32.40;;;;;;;6.36;95.76;103859.59;5032592;28;20048;-43
2021/12/18 17:30:28;;;;;;;69.35;21.65;;;;;;;6.42;95.82;103862.88;5032416;28;20026;-43
2021/12/18 17:32:55;;;;;;;69.30;21.42;;;;;;;6.45;95.22;103860.03;5032447;28;20478;-43
2021/12/18 17:35:20;;;;;;;82.07;23.90;;;;;;;6.42;95.19;103857.53;5031207;28;20113;-42
2021/12/18 17:37:46;;;;;;;76.22;23.83;;;;;;;6.32;95.17;103855.34;5032180;28;20132;-44
2021/12/18 17:40:13;;;;;;;76.43;23.65;;;;;;;6.25;95.52;103856.59;5032332;28;20113;-44
2021/12/18 17:42:39;;;;;;;81.70;22.23;;;;;;;6.20;95.96;103857.78;5031061;28;20026;-44
2021/12/18 17:45:05;;;;;;;79.50;23.38;;;;;;;6.32;96.42;103858.03;5032516;28;20100;-44
2021/12/18 17:47:30;;;;;;;73.32;20.95;;;;;;;6.33;96.15;103861.56;5031005;28;20062;-43
2021/12/18 17:49:56;;;;;;;72.13;22.00;;;;;;;6.40;95.83;103859.41;5032369;28;20025;-43
2021/12/18 17:52:22;;;;;;;78.82;22.10;;;;;;;6.40;95.58;103859.41;5032417;28;20116;-44
2021/12/18 17:54:48;;;;;;;82.75;25.40;;;;;;;6.49;95.27;103866.97;5032364;28;20474;-44
2021/12/18 17:57:14;;;;;;;80.47;24.58;;;;;;;6.45;95.14;103868.97;5032432;28;20036;-44
2021/12/18 17:59:40;;;;;;;81.70;23.60;;;;;;;6.39;95.27;103863.91;5033847;28;20539;-44
2021/12/18 18:02:05;;;;;;;80.47;23.17;;;;;;;6.42;95.83;103868.22;5036425;28;20029;-43
2021/12/18 18:04:30;;;;;;;85.47;24.15;;;;;;;6.38;95.81;103870.22;5037688;28;20374;-43
2021/12/18 18:06:56;;;;;;;86.10;24.73;;;;;;;6.35;96.12;103862.34;5036473;28;20500;-43
2021/12/18 18:09:28;;;;;;;85.50;23.45;;;;;;;6.38;96.46;103873.75;5037575;28;20029;-43
2021/12/18 18:11:54;;;;;;;89.55;25.63;;;;;;;6.36;96.40;103862.25;5036319;28;20029;-43
2021/12/18 18:14:19;;;;;;;94.90;28.48;;;;;;;6.38;96.79;103863.03;5035983;28;20083;-43
2021/12/18 18:16:44;;;;;;;113.30;26.50;;;;;;;6.38;96.63;103868.41;5035693;28;20030;-43
2021/12/18 18:19:10;;;;;;;85.15;24.27;;;;;;;6.34;96.78;103860.59;5036109;28;20030;-44
2021/12/18 18:21:35;;;;;;;83.38;22.90;;;;;;;6.31;96.54;103866.13;5036086;28;20473;-44
2021/12/18 18:24:00;;;;;;;81.60;21.85;;;;;;;6.29;96.73;103868.91;5035790;28;20060;-44
2021/12/18 18:26:27;;;;;;;72.95;21.45;;;;;;;6.44;96.58;103871.69;5035488;28;20098;-43
2021/12/18 18:28:52;;;;;;;71.72;21.42;;;;;;;6.43;96.29;103875.34;5035836;28;20029;-44
2021/12/18 18:31:18;;;;;;;56.22;16.33;;;;;;;6.46;95.34;103869.81;5034533;28;20028;-43
2021/12/18 18:33:43;;;;;;;48.67;16.80;;;;;;;6.44;95.12;103869.03;5036007;28;20022;-43
2021/12/18 18:36:10;;;;;;;45.15;14.55;;;;;;;6.40;94.74;103859.41;5035676;28;20033;-44
2021/12/18 18:38:35;;;;;;;49.35;15.88;;;;;;;6.36;94.80;103859.59;5035661;28;20412;-44
2021/12/18 18:41:06;;;;;;;46.40;15.48;;;;;;;6.40;95.10;103871.00;5035593;28;20033;-42
2021/12/18 18:43:32;;;;;;;57.00;16.67;;;;;;;6.34;95.00;103874.84;5035540;28;20037;-44
2021/12/18 18:48:33;;;;;;;48.72;15.32;;;;;;;6.38;95.00;103865.72;5035766;28;20094;-43
2021/12/18 18:50:58;;;;;;;59.22;17.23;;;;;;;6.36;95.12;103861.41;5034186;28;20063;-44
2021/12/18 18:53:24;;;;;;;44.20;13.13;;;;;;;6.32;95.14;103858.03;5035362;28;20674;-44
2021/12/18 18:55:49;;;;;;;56.35;15.88;;;;;;;6.31;95.16;103858.09;5035381;28;20064;-43
2021/12/18 18:58:14;;;;;;;60.75;15.80;;;;;;;6.29;95.65;103844.81;5033811;28;20079;-44
2021/12/18 19:00:40;;;;;;;54.72;14.90;;;;;;;6.33;95.54;103843.69;5033945;28;20021;-44
2021/12/18 19:03:05;;;;;;;54.58;14.88;;;;;;;6.34;95.46;103844.56;5035167;28;20025;-44
2021/12/18 19:05:32;;;;;;;63.67;16.90;;;;;;;6.30;95.21;103841.19;5035140;28;20021;-44
2021/12/18 19:07:57;;;;;;;54.60;17.00;;;;;;;6.39;95.15;103837.16;5035015;28;20087;-44
2021/12/18 19:10:23;;;;;;;50.75;15.32;;;;;;;6.29;94.53;103844.81;5034511;28;20477;-44
2021/12/18 19:12:48;;;;;;;58.78;16.17;;;;;;;6.28;94.83;103844.88;5034814;28;20029;-44
2021/12/18 19:15:15;;;;;;;58.20;16.25;;;;;;;6.30;95.49;103837.66;5034943;28;20032;-44
2021/12/18 19:17:41;;;;;;;57.42;17.08;;;;;;;6.37;95.12;103847.06;5033623;28;20029;-45
2021/12/18 19:20:12;;;;;;;57.15;17.23;;;;;;;6.34;95.28;103834.72;5033587;28;20034;-45
2021/12/18 19:22:49;;;;;;;64.20;18.23;;;;;;;6.35;95.14;103835.59;5034620;28;20128;-44
2021/12/18 19:25:15;;;;;;;65.57;19.23;;;;;;;6.35;95.43;103836.47;5034624;28;20452;-43
2021/12/18 19:27:43;;;;;;;56.90;18.40;;;;;;;6.36;95.43;103842.66;5034492;28;20021;-43
2021/12/18 19:30:10;;;;;;;;;;;;;;;6.35;95.46;103841.81;5033845;28;20036;-44
2021/12/18 19:32:37;;;;;;;46.80;17.55;;;;;;;6.38;95.54;103838.97;5034441;28;20296;-45
2021/12/18 19:35:04;;;;;;;60.75;18.23;;;;;;;6.35;95.42;103833.78;5034558;28;20051;-44
2021/12/18 19:37:30;;;;;;;56.72;19.15;;;;;;;6.33;95.33;103833.00;5034425;28;20126;-45
2021/12/18 19:39:55;;;;;;;61.20;19.52;;;;;;;6.36;95.58;103827.47;5034305;28;20112;-44
2021/12/18 19:42:20;;;;;;;55.72;19.80;;;;;;;6.30;95.61;103821.59;5034244;28;20025;-43
2021/12/18 19:44:46;;;;;;;61.22;20.45;;;;;;;6.29;95.79;103825.22;5032926;28;20381;-43
2021/12/18 19:47:11;;;;;;;64.57;18.80;;;;;;;6.31;95.80;103823.31;5032567;28;20018;-44
2021/12/18 19:49:36;;;;;;;64.45;19.05;;;;;;;6.29;96.18;103820.75;5033461;28;20037;-43
2021/12/18 19:52:03;;;;;;;72.65;19.38;;;;;;;6.23;96.04;103825.53;5033837;28;20037;-44
2021/12/18 19:54:29;;;;;;;73.20;19.08;;;;;;;6.22;96.31;103824.69;5033850;28;20032;-44
2021/12/18 19:56:54;;;;;;;72.07;20.98;;;;;;;6.23;96.54;103814.84;5033724;28;20104;-44
2021/12/18 19:59:21;;;;;;;69.80;20.95;;;;;;;6.25;96.95;103821.84;5033477;28;20091;-44
2021/12/18 20:01:56;;;;;;;67.03;20.23;;;;;;;6.33;96.89;103819.63;5033692;28;20065;-43
2021/12/18 20:04:33;;;;;;;88.63;27.80;;;;;;;6.28;96.84;103813.66;5033983;28;20017;-46
2021/12/18 20:07:05;;;;;;;113.03;40.47;;;;;;;6.26;96.80;103820.88;5033920;28;20112;-42
2021/12/18 20:09:30;;;;;;;82.35;27.75;;;;;;;6.25;97.03;103819.16;5032874;28;20076;-43
2021/12/18 20:11:56;;;;;;;68.57;18.63;;;;;;;6.25;97.29;103819.16;5034051;28;20022;-43
2021/12/18 20:14:22;;;;;;;58.67;14.05;;;;;;;6.24;97.08;103817.44;5033790;28;20029;-43
2021/12/18 20:16:49;;;;;;;61.55;15.07;;;;;;;6.19;97.08;103816.81;5032501;28;20119;-44
2021/12/18 20:19:15;;;;;;;64.32;16.17;;;;;;;6.17;97.24;103809.81;5033583;28;20022;-44
2021/12/18 20:21:41;;;;;;;50.60;14.50;;;;;;;6.15;97.52;103808.06;5014962;28;20120;-44
2021/12/18 20:24:07;;;;;;;44.58;13.75;;;;;;;6.14;97.14;103805.50;5033006;28;20097;-43
2021/12/18 20:26:32;;;;;;;40.17;12.85;;;;;;;6.14;97.30;103801.00;5033412;28;20469;-44
2021/12/18 20:28:58;;;;;;;39.97;13.55;;;;;;;6.11;97.10;103803.84;5032243;28;20113;-44
2021/12/18 20:31:23;;;;;;;38.63;11.25;;;;;;;6.10;97.44;103809.25;5033618;28;20037;-44
2021/12/18 20:33:49;;;;;;;33.47;12.82;;;;;;;6.05;97.21;103803.28;5033399;28;20026;-45
2021/12/18 20:36:14;;;;;;;43.17;12.90;;;;;;;6.04;97.19;103806.91;5033315;28;20101;-44
2021/12/18 20:38:39;;;;;;;43.45;13.68;;;;;;;6.06;97.48;103813.06;5033050;28;20511;-43
2021/12/18 20:41:07;;;;;;;41.15;14.82;;;;;;;6.09;97.35;103810.22;5033360;28;20682;-45
2021/12/18 20:43:33;;;;;;;42.78;14.60;;;;;;;6.02;97.33;103800.78;5033412;28;20025;-45
2021/12/18 20:45:59;;;;;;;45.92;14.88;;;;;;;6.02;97.27;103798.09;5033262;28;20029;-44
2021/12/18 20:48:24;;;;;;;37.75;12.40;;;;;;;6.03;97.23;103803.38;5033240;28;20053;-44
2021/12/18 20:50:51;;;;;;;35.17;11.77;;;;;;;6.01;96.91;103801.75;5033128;28;20040;-44
2021/12/18 20:53:16;;;;;;;30.95;13.50;;;;;;;6.02;97.07;103801.63;5033401;28;20030;-43
2021/12/18 20:55:41;;;;;;;39.65;13.93;;;;;;;6.03;97.01;103808.72;5033016;28;20039;-43
2021/12/18 20:58:08;;;;;;;47.53;14.45;;;;;;;6.07;97.17;103814.78;5032911;28;20017;-43
2021/12/18 21:00:35;;;;;;;40.15;14.00;;;;;;;6.08;97.07;103804.00;5032862;28;20087;-43
2021/12/18 21:03:03;;;;;;;52.00;16.30;;;;;;;6.09;97.35;103802.19;5032764;28;20555;-43
2021/12/18 21:05:29;;;;;;;58.80;15.20;;;;;;;6.08;97.35;103803.13;5031516;28;20033;-43
2021/12/18 21:07:57;;;;;;;61.00;16.60;;;;;;;6.09;97.62;103800.38;5032790;28;20400;-42
2021/12/18 21:10:34;;;;;;;59.35;16.77;;;;;;;6.10;97.22;103814.63;5032928;28;20029;-43
2021/12/18 21:13:01;;;;;;;60.35;16.02;;;;;;;6.07;96.77;103817.44;5032940;28;20384;-43